sensor_id;sensor_type;location;lat;lon;timestamp;pressure;altitude;pressure_sealevel;temperature;humidity
4528;BME280;62320;51.520;6.818;2023-04-12T00:01:43;100234.88;;;10.79;68.62
4528;BME280;62320;51.520;6.818;2023-04-12T00:11:44;100217.66;;;10.81;68.43
4528;BME280;62320;51.520;6.818;2023-04-12T00:21:46;100212.41;;;10.87;68.59
4528;BME280;62320;51.520;6.818;2023-04-12T00:31:47;100191.84;;;10.73;78.00
4528;BME280;62320;51.520;6.818;2023-04-12T00:41:49;100170.50;;;10.52;78.91
4528;BME280;62320;51.520;6.818;2023-04-12T00:51:50;100153.38;;;10.45;81.26
4528;BME280;62320;51.520;6.818;2023-04-12T01:01:56;100125.09;;;10.28;82.77
4528;BME280;62320;51.520;6.818;2023-04-12T01:12:10;100092.50;;;10.12;84.41
4528;BME280;62320;51.520;6.818;2023-04-12T01:22:30;100072.78;;;9.99;85.72
4528;BME280;62320;51.520;6.818;2023-04-12T01:32:37;100054.72;;;9.97;87.69
4528;BME280;62320;51.520;6.818;2023-04-12T01:42:39;100037.63;;;9.84;87.37
4528;BME280;62320;51.520;6.818;2023-04-12T01:52:47;100016.19;;;9.76;91.39
4528;BME280;62320;51.520;6.818;2023-04-12T02:02:49;99986.16;;;9.63;92.01
4528;BME280;62320;51.520;6.818;2023-04-12T02:12:51;99963.00;;;9.57;92.75
4528;BME280;62320;51.520;6.818;2023-04-12T02:22:54;99932.09;;;9.50;93.14
4528;BME280;62320;51.520;6.818;2023-04-12T02:32:55;99916.72;;;9.39;93.21
4528;BME280;62320;51.520;6.818;2023-04-12T02:42:58;99891.81;;;9.37;93.87
4528;BME280;62320;51.520;6.818;2023-04-12T02:52:59;99867.81;;;9.27;95.56
4528;BME280;62320;51.520;6.818;2023-04-12T03:03:01;99824.94;;;9.14;96.03
4528;BME280;62320;51.520;6.818;2023-04-12T03:13:04;99785.41;;;9.13;94.98
4528;BME280;62320;51.520;6.818;2023-04-12T03:23:05;99764.97;;;8.97;96.90
4528;BME280;62320;51.520;6.818;2023-04-12T03:33:07;99746.13;;;8.89;96.66
4528;BME280;62320;51.520;6.818;2023-04-12T03:43:08;99728.91;;;8.92;96.02
4528;BME280;62320;51.520;6.818;2023-04-12T03:53:10;99696.22;;;8.93;95.98
4528;BME280;62320;51.520;6.818;2023-04-12T04:03:13;99662.75;;;8.91;96.36
4528;BME280;62320;51.520;6.818;2023-04-12T04:13:14;99655.81;;;8.96;95.74
4528;BME280;62320;51.520;6.818;2023-04-12T04:23:16;99631.72;;;9.00;95.88
4528;BME280;62320;51.520;6.818;2023-04-12T04:33:17;99614.66;;;8.90;96.16
4528;BME280;62320;51.520;6.818;2023-04-12T04:43:20;99593.94;;;8.98;95.65
4528;BME280;62320;51.520;6.818;2023-04-12T04:53:22;99576.81;;;8.91;96.60
4528;BME280;62320;51.520;6.818;2023-04-12T05:03:23;99564.03;;;8.85;98.48
4528;BME280;62320;51.520;6.818;2023-04-12T05:13:31;99564.03;;;8.85;98.19
4528;BME280;62320;51.520;6.818;2023-04-12T05:23:36;99554.50;;;8.88;99.54
4528;BME280;62320;51.520;6.818;2023-04-12T05:33:42;99534.03;;;8.78;100.00
4528;BME280;62320;51.520;6.818;2023-04-12T05:43:45;99520.47;;;8.65;100.00
4528;BME280;62320;51.520;6.818;2023-04-12T05:53:47;99498.91;;;8.71;100.00
4528;BME280;62320;51.520;6.818;2023-04-12T06:03:48;99484.19;;;8.80;100.00
4528;BME280;62320;51.520;6.818;2023-04-12T06:13:50;99477.31;;;8.81;100.00
4528;BME280;62320;51.520;6.818;2023-04-12T06:23:52;99458.25;;;8.91;100.00
4528;BME280;62320;51.520;6.818;2023-04-12T06:33:53;99444.44;;;8.96;100.00
4528;BME280;62320;51.520;6.818;2023-04-12T06:43:54;99423.72;;;9.04;100.00
4528;BME280;62320;51.520;6.818;2023-04-12T06:53:56;99412.47;;;9.08;100.00
4528;BME280;62320;51.520;6.818;2023-04-12T07:03:58;99387.56;;;9.08;100.00
4528;BME280;62320;51.520;6.818;2023-04-12T07:13:59;99386.56;;;9.14;100.00
4528;BME280;62320;51.520;6.818;2023-04-12T07:24:01;99380.41;;;9.22;100.00
4528;BME280;62320;51.520;6.818;2023-04-12T07:34:02;99361.09;;;9.46;100.00
4528;BME280;62320;51.520;6.818;2023-04-12T07:44:04;99350.56;;;9.57;100.00
4528;BME280;62320;51.520;6.818;2023-04-12T07:54:05;99333.16;;;9.68;100.00
4528;BME280;62320;51.520;6.818;2023-04-12T08:04:07;99338.47;;;9.59;100.00
4528;BME280;62320;51.520;6.818;2023-04-12T08:14:08;99339.38;;;9.58;100.00
4528;BME280;62320;51.520;6.818;2023-04-12T08:24:10;99339.06;;;9.74;100.00
4528;BME280;62320;51.520;6.818;2023-04-12T08:34:13;99318.16;;;9.86;100.00
4528;BME280;62320;51.520;6.818;2023-04-12T08:44:14;99318.78;;;9.99;100.00
4528;BME280;62320;51.520;6.818;2023-04-12T08:54:16;99315.09;;;10.09;100.00
4528;BME280;62320;51.520;6.818;2023-04-12T09:04:18;99321.81;;;10.18;100.00
4528;BME280;62320;51.520;6.818;2023-04-12T09:14:24;99326.84;;;10.25;100.00
4528;BME280;62320;51.520;6.818;2023-04-12T09:24:27;99320.91;;;10.22;100.00
4528;BME280;62320;51.520;6.818;2023-04-12T09:34:29;99304.44;;;10.26;100.00
4528;BME280;62320;51.520;6.818;2023-04-12T09:44:31;99308.44;;;10.40;100.00
4528;BME280;62320;51.520;6.818;2023-04-12T09:54:38;99300.38;;;10.52;100.00
4528;BME280;62320;51.520;6.818;2023-04-12T10:04:41;99300.28;;;10.92;100.00
4528;BME280;62320;51.520;6.818;2023-04-12T10:14:44;99285.97;;;11.13;100.00
4528;BME280;62320;51.520;6.818;2023-04-12T10:24:47;99280.50;;;11.56;100.00
4528;BME280;62320;51.520;6.818;2023-04-12T10:34:54;99302.19;;;11.52;100.00
4528;BME280;62320;51.520;6.818;2023-04-12T10:55:27;99317.06;;;10.76;96.35
4528;BME280;62320;51.520;6.818;2023-04-12T11:05:30;99312.75;;;10.77;98.74
4528;BME280;62320;51.520;6.818;2023-04-12T11:15:31;99312.53;;;10.86;96.05
4528;BME280;62320;51.520;6.818;2023-04-12T11:25:34;99306.91;;;11.02;95.65
4528;BME280;62320;51.520;6.818;2023-04-12T11:35:36;99312.31;;;11.27;94.75
4528;BME280;62320;51.520;6.818;2023-04-12T11:45:37;99329.00;;;11.47;93.64
4528;BME280;62320;51.520;6.818;2023-04-12T11:55:39;99318.72;;;11.78;92.54
4528;BME280;62320;51.520;6.818;2023-04-12T12:05:41;99311.22;;;11.98;91.14
4528;BME280;62320;51.520;6.818;2023-04-12T12:15:44;99298.53;;;12.18;91.25
4528;BME280;62320;51.520;6.818;2023-04-12T12:25:46;99278.97;;;12.36;90.32
4528;BME280;62320;51.520;6.818;2023-04-12T12:35:55;99280.25;;;12.51;89.96
4528;BME280;62320;51.520;6.818;2023-04-12T12:45:56;99295.53;;;12.60;87.96
4528;BME280;62320;51.520;6.818;2023-04-12T12:55:58;99283.25;;;12.91;87.57
4528;BME280;62320;51.520;6.818;2023-04-12T13:06:00;99272.41;;;13.05;84.38
4528;BME280;62320;51.520;6.818;2023-04-12T13:16:01;99271.28;;;13.13;85.34
4528;BME280;62320;51.520;6.818;2023-04-12T13:26:03;99269.06;;;13.27;84.31
4528;BME280;62320;51.520;6.818;2023-04-12T13:36:05;99291.53;;;13.28;82.45
4528;BME280;62320;51.520;6.818;2023-04-12T13:46:07;99329.19;;;12.61;84.57
4528;BME280;62320;51.520;6.818;2023-04-12T13:56:08;99353.81;;;12.19;87.93
4528;BME280;62320;51.520;6.818;2023-04-12T14:06:12;99355.97;;;11.74;89.09
4528;BME280;62320;51.520;6.818;2023-04-12T14:16:13;99373.38;;;11.66;88.63
4528;BME280;62320;51.520;6.818;2023-04-12T14:26:15;99383.47;;;11.44;90.39
4528;BME280;62320;51.520;6.818;2023-04-12T14:36:16;99389.13;;;11.25;89.97
4528;BME280;62320;51.520;6.818;2023-04-12T14:46:18;99376.63;;;11.08;91.25
4528;BME280;62320;51.520;6.818;2023-04-12T14:56:24;99401.66;;;11.06;92.08
4528;BME280;62320;51.520;6.818;2023-04-12T15:06:31;99416.78;;;10.86;92.44
4528;BME280;62320;51.520;6.818;2023-04-12T15:16:37;99427.22;;;10.83;91.13
4528;BME280;62320;51.520;6.818;2023-04-12T15:26:43;99433.19;;;10.47;89.86
4528;BME280;62320;51.520;6.818;2023-04-12T15:36:45;99428.81;;;10.49;90.20
4528;BME280;62320;51.520;6.818;2023-04-12T15:46:46;99421.22;;;10.41;89.02
4528;BME280;62320;51.520;6.818;2023-04-12T15:56:59;99434.66;;;10.57;89.86
4528;BME280;62320;51.520;6.818;2023-04-12T16:07:09;99445.09;;;10.52;88.85
4528;BME280;62320;51.520;6.818;2023-04-12T16:17:11;99472.06;;;10.39;88.37
4528;BME280;62320;51.520;6.818;2023-04-12T16:27:13;99523.06;;;10.30;89.45
4528;BME280;62320;51.520;6.818;2023-04-12T16:37:15;99498.63;;;10.00;91.40
4528;BME280;62320;51.520;6.818;2023-04-12T16:47:16;99469.84;;;9.74;92.31
4528;BME280;62320;51.520;6.818;2023-04-12T16:57:18;99436.34;;;9.71;90.83
4528;BME280;62320;51.520;6.818;2023-04-12T17:07:19;99430.41;;;9.66;91.30
4528;BME280;62320;51.520;6.818;2023-04-12T17:17:21;99432.91;;;9.70;90.59
4528;BME280;62320;51.520;6.818;2023-04-12T17:27:23;99428.63;;;9.68;90.39
4528;BME280;62320;51.520;6.818;2023-04-12T17:37:25;99440.91;;;9.55;91.79
4528;BME280;62320;51.520;6.818;2023-04-12T17:47:28;99440.47;;;9.30;93.34
4528;BME280;62320;51.520;6.818;2023-04-12T17:57:29;99428.56;;;9.23;91.06
4528;BME280;62320;51.520;6.818;2023-04-12T18:07:31;99432.44;;;8.94;91.75
4528;BME280;62320;51.520;6.818;2023-04-12T18:17:33;99429.28;;;8.77;92.03
4528;BME280;62320;51.520;6.818;2023-04-12T18:27:34;99444.94;;;8.60;92.16
4528;BME280;62320;51.520;6.818;2023-04-12T18:37:36;99440.00;;;8.43;92.71
4528;BME280;62320;51.520;6.818;2023-04-12T18:47:38;99448.72;;;8.32;92.71
4528;BME280;62320;51.520;6.818;2023-04-12T18:57:40;99439.50;;;8.11;95.34
4528;BME280;62320;51.520;6.818;2023-04-12T19:07:42;99456.72;;;8.08;95.13
4528;BME280;62320;51.520;6.818;2023-04-12T19:17:43;99447.34;;;8.01;95.63
4528;BME280;62320;51.520;6.818;2023-04-12T19:27:45;99444.94;;;7.87;96.67
4528;BME280;62320;51.520;6.818;2023-04-12T19:37:47;99457.03;;;7.77;95.68
4528;BME280;62320;51.520;6.818;2023-04-12T19:47:50;99463.84;;;7.81;95.71
4528;BME280;62320;51.520;6.818;2023-04-12T19:57:51;99445.19;;;7.63;97.58
4528;BME280;62320;51.520;6.818;2023-04-12T20:07:53;99452.84;;;7.66;97.38
4528;BME280;62320;51.520;6.818;2023-04-12T20:17:56;99451.94;;;7.71;96.00
4528;BME280;62320;51.520;6.818;2023-04-12T20:27:58;99451.84;;;7.82;93.54
4528;BME280;62320;51.520;6.818;2023-04-12T20:38:01;99435.66;;;7.68;92.28
4528;BME280;62320;51.520;6.818;2023-04-12T20:48:03;99443.53;;;7.53;92.01
4528;BME280;62320;51.520;6.818;2023-04-12T20:58:05;99429.06;;;7.41;91.63
4528;BME280;62320;51.520;6.818;2023-04-12T21:08:08;99427.59;;;7.13;92.17
4528;BME280;62320;51.520;6.818;2023-04-12T21:18:10;99417.38;;;7.05;92.70
4528;BME280;62320;51.520;6.818;2023-04-12T21:28:12;99413.19;;;6.94;92.61
4528;BME280;62320;51.520;6.818;2023-04-12T21:38:15;99396.16;;;6.75;93.56
4528;BME280;62320;51.520;6.818;2023-04-12T21:48:16;99399.53;;;6.87;93.99
4528;BME280;62320;51.520;6.818;2023-04-12T21:58:17;99385.03;;;6.76;93.72
4528;BME280;62320;51.520;6.818;2023-04-12T22:08:19;99371.34;;;6.77;95.04
4528;BME280;62320;51.520;6.818;2023-04-12T22:18:20;99357.66;;;6.75;95.50
4528;BME280;62320;51.520;6.818;2023-04-12T22:28:22;99350.84;;;6.72;95.57
4528;BME280;62320;51.520;6.818;2023-04-12T22:38:24;99343.94;;;6.76;96.03
4528;BME280;62320;51.520;6.818;2023-04-12T22:48:27;99326.88;;;6.72;94.84
4528;BME280;62320;51.520;6.818;2023-04-12T22:58:32;99314.88;;;6.72;95.38
4528;BME280;62320;51.520;6.818;2023-04-12T23:08:33;99290.06;;;6.71;94.47
4528;BME280;62320;51.520;6.818;2023-04-12T23:18:35;99269.50;;;6.74;94.03
4528;BME280;62320;51.520;6.818;2023-04-12T23:28:38;99257.44;;;6.79;92.26
4528;BME280;62320;51.520;6.818;2023-04-12T23:38:40;99266.78;;;6.86;91.41
4528;BME280;62320;51.520;6.818;2023-04-12T23:48:44;99227.28;;;6.98;92.79
4528;BME280;62320;51.520;6.818;2023-04-12T23:58:45;99216.91;;;7.08;91.68
